Time;durP1;ratioP1;P1;durP2;ratioP2;P2;SDS_P1;SDS_P2;PMS_P1;PMS_P2;Temp;Humidity;BMP_temperature;BMP_pressure;BME280_temperature;BME280_humidity;BME280_pressure;Samples;Min_cycle;Max_cycle;Signal;HPM_P1;HPM_P2
2023/03/23 00:02:07;;;;;;;10.88;6.93;;;;;;;11.21;96.15;100154.66;5134070;27;20045;-57
2023/03/23 00:04:33;;;;;;;7.90;7.20;;;;;;;11.23;95.67;100155.34;5129124;27;20463;-57
2023/03/23 00:07:02;;;;;;;8.88;6.80;;;;;;;11.24;95.52;100143.75;5118186;27;21430;-57
2023/03/23 00:09:28;;;;;;;7.93;7.07;;;;;;;11.23;95.61;100133.22;5133976;27;20041;-57
2023/03/23 00:11:56;;;;;;;6.90;6.22;;;;;;;11.24;95.48;100127.78;5127391;27;20102;-57
2023/03/23 00:14:23;;;;;;;9.32;6.50;;;;;;;11.30;95.18;100137.13;5124918;27;20526;-57
2023/03/23 00:16:49;;;;;;;7.88;7.18;;;;;;;11.28;95.63;100155.84;5116627;27;20016;-57
2023/03/23 00:19:15;;;;;;;6.80;6.20;;;;;;;11.25;96.08;100156.09;5116462;27;20031;-57
2023/03/23 00:21:45;;;;;;;10.50;6.60;;;;;;;11.12;95.15;100110.97;5134267;27;20102;-57
2023/03/23 00:24:18;;;;;;;;;;;;;;;11.34;95.53;100126.09;5117446;27;20462;-57
2023/03/23 00:26:48;;;;;;;6.82;6.22;;;;;;;11.29;95.22;100135.41;5136207;27;20319;-57
2023/03/23 00:29:18;;;;;;;7.50;6.70;;;;;;;11.31;95.09;100150.28;5116142;27;20023;-57
2023/03/23 00:31:47;;;;;;;8.40;7.60;;;;;;;11.30;95.24;100156.59;5127550;27;20022;-57
2023/03/23 00:34:19;;;;;;;7.60;6.85;;;;;;;11.30;95.37;100147.78;5136354;27;20015;-57
2023/03/23 00:36:46;;;;;;;7.72;6.78;;;;;;;11.30;95.84;100155.75;5146474;27;20103;-57
2023/03/23 00:39:12;;;;;;;7.90;7.07;;;;;;;11.32;95.41;100151.13;5116180;27;20084;-57
2023/03/23 00:41:38;;;;;;;8.07;7.25;;;;;;;11.39;94.42;100151.53;5095222;27;20019;-57
2023/03/23 00:44:04;;;;;;;8.48;7.13;;;;;;;11.32;95.51;100149.34;5147915;27;20438;-57
2023/03/23 00:46:29;;;;;;;8.45;7.40;;;;;;;11.34;95.19;100142.06;5154695;27;20050;-57
2023/03/23 00:48:56;;;;;;;8.07;6.78;;;;;;;11.38;95.24;100137.34;5135948;27;20023;-57
2023/03/23 00:51:23;;;;;;;9.02;6.97;;;;;;;11.39;96.19;100130.22;5136166;27;20396;-57
2023/03/23 00:53:48;;;;;;;7.68;6.75;;;;;;;11.38;96.20;100126.69;5147137;27;20469;-57
2023/03/23 00:56:14;;;;;;;9.10;7.10;;;;;;;11.35;96.81;100126.94;5115478;27;20083;-57
2023/03/23 00:58:40;;;;;;;7.63;6.82;;;;;;;11.29;97.17;100119.44;5116079;27;20161;-57
2023/03/23 01:01:06;;;;;;;8.23;6.53;;;;;;;11.33;97.75;100132.41;5133975;27;20022;-57
2023/03/23 01:03:33;;;;;;;7.88;7.10;;;;;;;11.27;98.44;100110.75;5116123;27;20019;-57
2023/03/23 01:06:12;;;;;;;8.02;7.18;;;;;;;11.29;97.54;100101.63;5133786;27;20031;-57
2023/03/23 01:08:44;;;;;;;8.23;7.27;;;;;;;11.32;97.65;100104.09;5115902;27;20496;-57
2023/03/23 01:11:13;;;;;;;7.88;7.13;;;;;;;11.30;97.76;100114.00;5133876;27;20106;-57
2023/03/23 01:13:38;;;;;;;7.53;6.82;;;;;;;11.31;97.46;100096.22;5138874;27;20022;-57
2023/03/23 01:16:04;;;;;;;7.78;7.07;;;;;;;11.29;97.57;100074.19;5131989;27;20042;-57
2023/03/23 01:18:31;;;;;;;8.38;7.55;;;;;;;11.35;96.13;100081.69;5131392;27;20027;-57
2023/03/23 01:20:57;;;;;;;7.68;7.00;;;;;;;11.39;96.28;100077.81;5114776;27;20065;-57
2023/03/23 01:23:22;;;;;;;7.95;7.15;;;;;;;11.36;96.57;100078.06;5115498;27;20578;-57
2023/03/23 01:25:49;;;;;;;7.18;6.57;;;;;;;11.41;96.02;100083.84;5133143;27;20031;-57
2023/03/23 01:28:14;;;;;;;7.75;6.95;;;;;;;11.43;95.93;100076.59;5133512;27;20051;-57
2023/03/23 01:30:43;;;;;;;7.65;6.95;;;;;;;11.43;95.56;100081.94;5097536;27;20160;-57
2023/03/23 01:33:08;;;;;;;9.27;6.95;;;;;;;11.42;95.21;100071.41;5134394;27;20019;-56
2023/03/23 01:35:37;;;;;;;7.55;6.85;;;;;;;11.45;95.53;100076.50;5133269;27;20027;-57
2023/03/23 01:38:05;;;;;;;6.95;6.45;;;;;;;11.35;95.95;100071.03;5136094;27;20041;-57
2023/03/23 01:40:30;;;;;;;9.38;7.05;;;;;;;11.43;95.93;100083.75;5153911;27;20023;-57
2023/03/23 01:42:55;;;;;;;7.80;7.13;;;;;;;11.49;94.99;100072.59;5153600;27;20025;-57
2023/03/23 01:45:27;;;;;;;8.02;6.80;;;;;;;11.48;95.48;100079.75;5131950;27;20035;-57
2023/03/23 01:47:56;;;;;;;7.10;6.40;;;;;;;11.50;95.18;100087.59;5112616;27;20027;-58
2023/03/23 01:50:27;;;;;;;8.70;7.13;;;;;;;11.47;95.38;100083.41;5134181;27;20029;-57
2023/03/23 01:52:55;;;;;;;7.50;6.88;;;;;;;11.43;95.45;100075.75;5138919;27;20482;-57
2023/03/23 01:55:22;;;;;;;8.23;7.43;;;;;;;11.49;95.18;100086.75;5132990;27;20023;-57
2023/03/23 01:57:49;;;;;;;7.18;6.47;;;;;;;11.51;95.08;100078.66;5133066;27;20466;-57
2023/03/23 02:00:15;;;;;;;7.97;7.25;;;;;;;11.53;94.66;100061.59;5113989;27;20014;-57
2023/03/23 02:02:48;;;;;;;8.27;7.38;;;;;;;11.59;94.01;100054.94;5141498;27;20027;-57
2023/03/23 02:05:20;;;;;;;8.50;7.22;;;;;;;11.57;93.63;100041.72;5135055;27;20022;-57
2023/03/23 02:07:48;;;;;;;7.53;6.90;;;;;;;11.61;93.44;100045.00;5152882;27;20023;-57
2023/03/23 02:10:14;;;;;;;8.13;7.28;;;;;;;11.59;93.96;100052.28;5134168;27;20403;-57
2023/03/23 02:12:42;;;;;;;7.50;6.80;;;;;;;11.60;93.40;100044.16;5148550;27;20029;-57
2023/03/23 02:15:07;;;;;;;7.45;6.80;;;;;;;11.55;93.93;100026.84;5114049;28;20034;-57
2023/03/23 02:17:53;;;;;;;7.57;6.60;;;;;;;11.58;94.09;100035.44;5114229;28;20027;-57
2023/03/23 02:20:35;;;;;;;7.90;7.20;;;;;;;11.59;93.44;100028.31;5132586;27;20058;-57
2023/03/23 02:23:24;;;;;;;7.15;6.55;;;;;;;11.60;93.05;100028.16;5133615;27;20030;-57
2023/03/23 02:25:49;;;;;;;10.23;7.32;;;;;;;11.63;92.58;100034.22;5055302;28;20134;-58
2023/03/23 02:28:48;;;;;;;7.90;6.95;;;;;;;11.63;93.30;100042.22;5118018;27;20107;-57
2023/03/23 02:31:31;;;;;;;7.17;6.47;;;;;;;11.61;92.77;100037.00;5131811;28;20076;-57
2023/03/23 02:34:10;;;;;;;7.22;6.53;;;;;;;11.70;92.19;100041.59;5115164;28;20023;-57
2023/03/23 02:37:23;;;;;;;7.70;7.00;;;;;;;11.66;93.27;100018.84;5132589;28;20038;-57
2023/03/23 02:40:06;;;;;;;7.13;6.43;;;;;;;11.62;92.28;100025.41;5133717;27;20019;-57
2023/03/23 02:42:36;;;;;;;7.57;6.88;;;;;;;11.65;91.69;100019.81;5125202;27;20065;-57
2023/03/23 02:45:05;;;;;;;6.82;6.18;;;;;;;11.64;92.53;100018.09;5132691;27;20031;-57
2023/03/23 02:47:31;;;;;;;7.90;6.32;;;;;;;11.55;92.65;100011.72;5123334;27;20114;-58
2023/03/23 02:49:59;;;;;;;9.52;7.22;;;;;;;11.78;91.11;100022.31;5118091;27;20462;-57
2023/03/23 02:52:29;;;;;;;7.22;6.40;;;;;;;11.73;91.21;100028.00;5136535;27;20098;-57
2023/03/23 02:54:56;;;;;;;7.15;6.55;;;;;;;11.76;91.41;100042.91;5136646;27;20035;-57
2023/03/23 02:57:23;;;;;;;6.88;6.32;;;;;;;11.78;91.27;100039.16;5147701;27;20101;-57
2023/03/23 02:59:48;;;;;;;6.97;6.30;;;;;;;11.79;91.67;100038.19;5133711;27;20023;-57
2023/03/23 03:02:42;;;;;;;7.55;6.30;;;;;;;11.85;91.43;100033.31;5108406;28;20442;-57
2023/03/23 03:05:26;;;;;;;6.35;5.82;;;;;;;11.82;91.43;100042.41;5122338;27;20099;-57
2023/03/23 03:08:13;;;;;;;7.30;6.63;;;;;;;11.83;91.23;100030.81;5113493;27;20141;-57
2023/03/23 03:11:02;;;;;;;7.05;6.30;;;;;;;11.84;91.36;100040.47;5154180;27;20027;-57
2023/03/23 03:13:52;;;;;;;6.15;5.65;;;;;;;11.87;91.02;100042.91;5156707;27;20027;-57
2023/03/23 03:16:23;;;;;;;6.85;6.22;;;;;;;11.83;91.32;100039.63;5155558;27;20370;-57
2023/03/23 03:19:20;;;;;;;7.45;6.75;;;;;;;11.81;91.29;100030.91;5156535;27;20034;-57
2023/03/23 03:21:49;;;;;;;7.97;7.28;;;;;;;11.79;90.12;100024.00;5097110;28;20024;-57
2023/03/23 03:24:17;;;;;;;7.32;6.63;;;;;;;11.86;90.57;100032.41;5100936;27;20110;-57
2023/03/23 03:26:47;;;;;;;7.72;6.68;;;;;;;11.88;89.96;100030.44;5115520;27;20040;-57
2023/03/23 03:29:14;;;;;;;;;;;;;;;11.88;89.58;100001.13;5131174;27;20500;-57
2023/03/23 03:31:45;;;;;;;6.70;6.10;;;;;;;11.86;89.59;100030.56;5113186;28;19915;-57
2023/03/23 03:34:17;;;;;;;7.25;6.55;;;;;;;11.83;89.63;100030.81;5122905;27;20019;-57
2023/03/23 03:36:45;;;;;;;8.10;6.90;;;;;;;11.88;89.40;100031.28;5126614;27;20531;-57
2023/03/23 03:39:14;;;;;;;7.22;6.53;;;;;;;11.83;89.12;100034.31;5122011;27;20035;-57
2023/03/23 03:41:41;;;;;;;7.85;6.35;;;;;;;11.81;89.54;100046.91;5115774;27;20028;-57
2023/03/23 03:44:07;;;;;;;8.73;6.85;;;;;;;11.92;88.00;100042.56;5130282;27;20066;-57
2023/03/23 03:46:35;;;;;;;7.45;6.00;;;;;;;11.82;89.01;100040.63;5130488;27;20443;-57
2023/03/23 03:49:02;;;;;;;6.78;6.05;;;;;;;11.82;88.45;100042.41;5101576;27;20026;-57
2023/03/23 03:51:30;;;;;;;9.57;7.05;;;;;;;11.78;88.73;100036.50;5122463;27;20083;-57
2023/03/23 03:53:56;;;;;;;7.55;6.30;;;;;;;11.79;88.38;100026.66;5115176;27;20118;-57
2023/03/23 03:56:22;;;;;;;7.30;6.45;;;;;;;11.80;87.72;100039.03;5114715;27;20538;-57
2023/03/23 03:58:48;;;;;;;8.30;6.55;;;;;;;11.75;88.31;100050.06;5129734;27;20031;-57
2023/03/23 04:01:14;;;;;;;8.43;6.30;;;;;;;11.69;88.71;100036.41;5114385;27;20535;-57
2023/03/23 04:03:40;;;;;;;8.75;5.45;;;;;;;11.75;87.72;100046.56;5097753;27;20513;-57
2023/03/23 04:06:08;;;;;;;8.02;5.43;;;;;;;11.71;88.05;100045.13;5114550;28;20108;-57
2023/03/23 04:08:35;;;;;;;6.60;5.38;;;;;;;11.77;86.52;100048.13;5114974;27;20062;-57
2023/03/23 04:11:03;;;;;;;11.73;5.38;;;;;;;11.79;86.66;100043.53;5124016;27;20055;-57
2023/03/23 04:13:31;;;;;;;9.35;5.25;;;;;;;11.86;86.16;100051.91;5114397;27;20019;-57
2023/03/23 04:15:57;;;;;;;8.80;4.47;;;;;;;11.75;86.00;100055.38;5096330;28;20504;-57
2023/03/23 04:18:23;;;;;;;7.32;5.18;;;;;;;11.79;84.76;100058.63;5114526;27;20102;-57
2023/03/23 04:20:49;;;;;;;9.02;5.72;;;;;;;11.88;84.82;100049.09;5135685;27;20030;-57
2023/03/23 04:23:19;;;;;;;7.60;5.10;;;;;;;11.79;85.40;100070.16;5134913;27;20023;-57
2023/03/23 04:25:49;;;;;;;7.55;5.68;;;;;;;11.72;86.32;100062.78;5119156;27;20607;-57
2023/03/23 04:28:23;;;;;;;7.97;5.40;;;;;;;11.79;84.65;100067.50;5112955;28;20390;-57
2023/03/23 04:30:52;;;;;;;7.68;5.68;;;;;;;11.75;85.33;100063.38;5137621;27;20397;-57
2023/03/23 04:33:21;;;;;;;9.93;5.75;;;;;;;11.74;85.27;100063.50;5127272;27;20421;-57
2023/03/23 04:35:47;;;;;;;10.15;5.00;;;;;;;11.74;84.93;100083.00;5117446;27;20015;-57
2023/03/23 04:38:15;;;;;;;12.82;5.45;;;;;;;11.81;84.34;100080.69;5114069;27;20027;-57
2023/03/23 04:40:43;;;;;;;10.52;5.80;;;;;;;11.72;84.62;100070.78;5118179;27;20050;-57
2023/03/23 04:43:12;;;;;;;11.68;5.28;;;;;;;11.78;84.94;100056.97;5114193;27;20038;-57
2023/03/23 04:45:41;;;;;;;8.80;5.45;;;;;;;11.78;84.32;100076.44;5109485;27;20026;-57
2023/03/23 04:48:09;;;;;;;8.83;5.50;;;;;;;11.81;84.35;100073.53;5114979;27;20397;-57
2023/03/23 04:50:35;;;;;;;8.40;5.28;;;;;;;11.81;84.56;100072.69;5134167;27;20034;-57
2023/03/23 04:53:04;;;;;;;9.38;5.15;;;;;;;11.77;84.71;100084.59;5095380;28;20024;-57
2023/03/23 04:55:37;;;;;;;;;;;;;;;11.77;85.28;100073.94;5113867;28;20104;-57
2023/03/23 04:58:09;;;;;;;12.75;6.05;;;;;;;11.74;84.82;100083.00;5154100;27;19914;-57
2023/03/23 05:00:36;;;;;;;8.38;5.30;;;;;;;11.74;84.82;100080.34;5154440;27;20113;-57
2023/03/23 05:03:01;;;;;;;10.02;4.82;;;;;;;11.70;84.49;100062.88;5154537;27;20376;-57
2023/03/23 05:05:30;;;;;;;9.85;4.90;;;;;;;11.75;84.07;100075.84;5136122;27;20114;-57
2023/03/23 05:07:56;;;;;;;14.70;4.85;;;;;;;11.72;84.62;100076.09;5138295;27;20027;-57
2023/03/23 05:10:23;;;;;;;6.45;5.15;;;;;;;11.74;84.54;100087.50;5132746;27;20462;-57
2023/03/23 05:12:49;;;;;;;8.18;5.32;;;;;;;11.77;84.41;100089.91;5134009;27;20030;-57
2023/03/23 05:15:16;;;;;;;9.93;5.00;;;;;;;11.75;84.53;100099.84;5115337;27;20019;-57
2023/03/23 05:17:43;;;;;;;8.52;5.40;;;;;;;11.71;84.36;100080.59;5134864;27;20048;-57
2023/03/23 05:20:19;;;;;;;7.82;4.68;;;;;;;11.71;84.72;100080.59;5154719;27;20027;-57
2023/03/23 05:22:49;;;;;;;12.43;5.53;;;;;;;11.69;84.33;100081.69;5154430;27;20030;-57
2023/03/23 05:25:15;;;;;;;8.30;5.15;;;;;;;11.77;83.69;100081.91;5141269;27;20023;-57
2023/03/23 05:27:43;;;;;;;8.70;4.45;;;;;;;11.71;84.22;100087.75;5140397;27;20113;-57
2023/03/23 05:30:09;;;;;;;7.45;5.45;;;;;;;11.72;84.09;100095.59;5132711;27;20023;-57
2023/03/23 05:32:37;;;;;;;7.88;5.13;;;;;;;11.71;84.51;100103.72;5124535;27;20097;-57
2023/03/23 05:35:04;;;;;;;11.25;5.38;;;;;;;11.63;85.78;100100.81;5118389;27;20019;-57
2023/03/23 05:37:32;;;;;;;6.63;5.20;;;;;;;11.59;86.05;100093.06;5132090;27;20076;-57
2023/03/23 05:40:01;;;;;;;13.45;5.78;;;;;;;11.51;87.15;100087.50;5146723;27;20381;-56
2023/03/23 05:42:29;;;;;;;13.50;5.90;;;;;;;11.53;86.93;100093.56;5153887;27;20401;-57
2023/03/23 05:44:54;;;;;;;9.05;5.82;;;;;;;11.48;87.40;100089.56;5134689;27;20029;-57
2023/03/23 05:47:20;;;;;;;10.13;5.60;;;;;;;11.41;87.71;100081.19;5153992;27;20015;-57
2023/03/23 05:49:45;;;;;;;11.48;5.40;;;;;;;11.43;88.02;100103.22;5149334;27;20473;-57
2023/03/23 05:52:11;;;;;;;10.68;5.97;;;;;;;11.43;88.18;100092.56;5154098;27;20026;-57
2023/03/23 05:54:38;;;;;;;8.68;5.50;;;;;;;11.37;88.55;100095.72;5135252;27;20030;-57
2023/03/23 05:57:08;;;;;;;11.05;5.88;;;;;;;11.44;87.49;100090.75;5151413;27;20030;-56
2023/03/23 05:59:34;;;;;;;12.60;6.72;;;;;;;11.34;88.40;100086.16;5150178;27;20423;-57
2023/03/23 06:01:59;;;;;;;10.93;6.47;;;;;;;11.35;88.63;100087.00;5114756;27;20109;-56
2023/03/23 06:04:26;;;;;;;11.00;6.25;;;;;;;11.36;88.47;100094.03;5114444;27;20118;-57
2023/03/23 06:06:52;;;;;;;10.05;5.82;;;;;;;11.37;87.99;100087.75;5115340;27;20051;-57
2023/03/23 06:09:20;;;;;;;9.55;5.78;;;;;;;11.41;87.28;100089.19;5132730;27;20023;-57
2023/03/23 06:11:51;;;;;;;9.68;5.70;;;;;;;11.40;88.13;100087.50;5113621;27;20023;-57
2023/03/23 06:14:17;;;;;;;12.88;6.47;;;;;;;11.45;87.44;100100.47;5113910;27;20367;-57
2023/03/23 06:16:43;;;;;;;9.15;5.57;;;;;;;11.43;87.78;100108.56;5115361;27;20038;-57
2023/03/23 06:19:08;;;;;;;11.85;6.18;;;;;;;11.39;87.17;100098.28;5132757;27;20389;-57
2023/03/23 06:21:36;;;;;;;9.48;5.90;;;;;;;11.58;85.79;100120.66;5125847;27;20027;-56
2023/03/23 06:24:01;;;;;;;8.13;5.68;;;;;;;11.54;85.96;100123.69;5150050;27;20023;-57
2023/03/23 06:26:38;;;;;;;10.98;6.40;;;;;;;11.59;85.18;100138.34;5113872;27;20154;-56
2023/03/23 06:29:11;;;;;;;9.30;6.10;;;;;;;11.57;85.27;100137.63;5114305;28;20378;-57
2023/03/23 06:31:44;;;;;;;12.93;6.15;;;;;;;11.57;85.15;100144.75;5137732;27;20034;-57
2023/03/23 06:34:11;;;;;;;14.10;7.40;;;;;;;11.56;84.56;100127.09;5148364;27;20105;-57
2023/03/23 06:36:38;;;;;;;11.25;5.85;;;;;;;11.58;84.84;100149.09;5134480;27;20045;-57
2023/03/23 06:39:07;;;;;;;11.55;5.32;;;;;;;11.54;85.21;100139.69;5153341;27;20026;-57
2023/03/23 06:41:32;;;;;;;10.85;5.82;;;;;;;11.55;85.25;100160.84;5133770;27;20193;-57
2023/03/23 06:43:58;;;;;;;9.73;5.72;;;;;;;11.60;84.75;100165.81;5132703;27;20526;-57
2023/03/23 06:46:24;;;;;;;10.15;5.35;;;;;;;11.65;83.40;100160.13;5104654;28;20027;-57
2023/03/23 06:48:50;;;;;;;10.70;5.63;;;;;;;11.62;84.10;100168.34;5113807;28;20076;-57
2023/03/23 06:51:16;;;;;;;11.70;5.88;;;;;;;11.70;83.44;100172.09;5113470;28;20390;-57
2023/03/23 06:53:42;;;;;;;12.93;6.50;;;;;;;11.61;84.61;100170.16;5132546;27;20023;-57
2023/03/23 06:56:08;;;;;;;8.93;5.85;;;;;;;11.66;84.00;100178.66;5132406;28;20026;-57
2023/03/23 06:58:34;;;;;;;8.13;5.25;;;;;;;11.67;83.92;100191.00;5114408;28;20015;-57
2023/03/23 07:01:00;;;;;;;9.75;5.82;;;;;;;11.64;84.47;100183.25;5132879;27;20026;-57
2023/03/23 07:03:27;;;;;;;9.57;5.63;;;;;;;11.55;86.50;100182.16;5121894;27;20388;-56
2023/03/23 07:05:54;;;;;;;11.23;4.63;;;;;;;11.49;87.48;100176.47;5152511;27;20023;-57
2023/03/23 07:08:19;;;;;;;8.88;5.82;;;;;;;11.40;90.54;100179.84;5125454;27;20186;-57
2023/03/23 07:10:49;;;;;;;10.88;6.15;;;;;;;11.31;91.78;100190.22;5141475;27;20109;-57
2023/03/23 07:13:15;;;;;;;11.27;6.57;;;;;;;11.17;93.96;100184.25;5113972;28;20045;-57
2023/03/23 07:15:41;;;;;;;12.90;5.75;;;;;;;11.07;94.56;100197.44;5114020;28;20474;-57
2023/03/23 07:18:08;;;;;;;14.00;6.00;;;;;;;10.94;95.45;100200.16;5113821;28;20072;-57
2023/03/23 07:20:34;;;;;;;9.48;5.35;;;;;;;10.89;97.15;100210.31;5137379;27;20367;-57
2023/03/23 07:23:01;;;;;;;9.48;5.63;;;;;;;10.70;99.50;100210.81;5126934;27;20080;-57
2023/03/23 07:25:27;;;;;;;10.02;6.18;;;;;;;10.65;100.00;100215.63;5116717;28;20026;-57
2023/03/23 07:27:52;;;;;;;10.63;6.43;;;;;;;10.59;100.00;100222.25;5132251;27;20113;-57
2023/03/23 07:30:18;;;;;;;10.13;6.18;;;;;;;10.48;100.00;100222.19;5130347;28;20031;-57
2023/03/23 07:32:43;;;;;;;13.63;6.30;;;;;;;10.41;100.00;100221.78;5130579;27;20080;-57
2023/03/23 07:35:11;;;;;;;12.15;6.38;;;;;;;10.36;100.00;100245.19;5131220;27;20076;-57
2023/03/23 07:37:36;;;;;;;16.33;6.72;;;;;;;10.20;100.00;100240.06;5126817;27;20023;-57
2023/03/23 07:40:14;;;;;;;13.48;7.03;;;;;;;10.11;100.00;100222.13;5115161;27;20031;-57
2023/03/23 07:42:41;;;;;;;7.75;6.30;;;;;;;10.19;100.00;100210.97;5132825;27;20035;-57
2023/03/23 07:45:07;;;;;;;7.18;5.40;;;;;;;10.15;100.00;100220.97;5126606;27;20038;-57
2023/03/23 07:47:32;;;;;;;7.63;5.20;;;;;;;10.20;100.00;100221.47;5117726;27;20393;-57
2023/03/23 07:49:58;;;;;;;7.40;5.50;;;;;;;10.24;100.00;100217.66;5109781;27;20541;-57
2023/03/23 07:52:26;;;;;;;9.15;5.68;;;;;;;10.28;100.00;100230.75;5130025;27;20030;-57
2023/03/23 07:54:51;;;;;;;9.82;6.22;;;;;;;10.23;100.00;100229.25;5126064;27;20014;-57
2023/03/23 07:57:17;;;;;;;8.80;5.88;;;;;;;10.14;100.00;100221.06;5155533;27;20030;-57
2023/03/23 07:59:42;;;;;;;7.07;6.15;;;;;;;10.21;100.00;100239.13;5136487;27;20029;-57
2023/03/23 08:02:09;;;;;;;5.90;5.20;;;;;;;10.21;100.00;100251.56;5137162;27;20117;-56
2023/03/23 08:04:37;;;;;;;8.20;5.55;;;;;;;10.18;100.00;100251.78;5132319;27;20015;-57
2023/03/23 08:07:04;;;;;;;7.70;5.82;;;;;;;10.07;99.68;100247.22;5135379;27;20281;-57
2023/03/23 08:09:30;;;;;;;6.30;5.70;;;;;;;10.05;100.00;100259.75;5134468;27;20096;-57
2023/03/23 08:11:55;;;;;;;6.10;5.00;;;;;;;10.00;99.32;100275.19;5116739;27;20042;-57
2023/03/23 08:14:21;;;;;;;6.28;5.63;;;;;;;10.02;100.00;100279.41;5099678;27;20027;-57
2023/03/23 08:16:49;;;;;;;7.13;5.00;;;;;;;9.92;100.00;100283.69;5138651;27;20053;-56
2023/03/23 08:19:14;;;;;;;6.22;4.90;;;;;;;9.89;100.00;100264.47;5136520;27;20125;-57
2023/03/23 08:21:40;;;;;;;5.95;4.90;;;;;;;9.94;99.21;100264.97;5137214;27;20113;-57
2023/03/23 08:24:06;;;;;;;9.07;5.38;;;;;;;9.95;99.78;100277.31;5152719;27;20426;-57
2023/03/23 08:26:34;;;;;;;8.18;5.35;;;;;;;9.92;98.94;100269.56;5152729;27;20072;-56
2023/03/23 08:28:59;;;;;;;5.78;5.15;;;;;;;9.95;99.01;100272.00;5155626;27;20027;-57
2023/03/23 08:31:27;;;;;;;6.47;5.10;;;;;;;9.95;98.65;100272.00;5154950;27;20391;-57
2023/03/23 08:33:52;;;;;;;5.38;4.85;;;;;;;9.93;98.86;100266.78;5155286;27;20022;-57
2023/03/23 08:36:17;;;;;;;7.25;5.72;;;;;;;10.02;98.32;100260.81;5134744;27;20122;-57
2023/03/23 08:38:44;;;;;;;23.23;19.08;;;;;;;10.05;98.69;100269.53;5119629;27;20031;-57
2023/03/23 08:41:10;;;;;;;48.92;41.78;;;;;;;10.00;98.81;100265.41;5155168;27;20029;-57
2023/03/23 08:43:36;;;;;;;16.38;14.02;;;;;;;10.02;97.51;100265.28;5154810;27;20106;-57
2023/03/23 08:46:06;;;;;;;7.35;6.38;;;;;;;10.15;96.50;100273.28;5147927;27;20152;-57
2023/03/23 08:48:33;;;;;;;6.18;5.35;;;;;;;10.10;97.08;100278.91;5134040;27;20373;-57
2023/03/23 08:50:59;;;;;;;6.70;5.00;;;;;;;10.13;97.61;100278.69;5115805;27;20079;-56
2023/03/23 08:53:25;;;;;;;7.63;5.70;;;;;;;10.09;97.38;100273.66;5134215;27;20068;-57
2023/03/23 08:55:51;;;;;;;7.18;5.53;;;;;;;10.13;99.07;100277.84;5134662;27;20095;-56
2023/03/23 08:58:17;;;;;;;5.88;5.20;;;;;;;10.15;97.79;100282.09;5116244;27;20533;-57
2023/03/23 09:00:43;;;;;;;8.07;5.90;;;;;;;10.14;99.37;100290.16;5141679;27;20038;-57
2023/03/23 09:03:11;;;;;;;8.57;5.68;;;;;;;10.21;98.75;100302.91;5134052;27;20027;-57
2023/03/23 09:05:45;;;;;;;6.72;5.55;;;;;;;10.19;100.00;100288.03;5134861;27;20031;-56
2023/03/23 09:08:12;;;;;;;7.32;5.43;;;;;;;10.20;97.99;100271.13;5134193;27;20027;-57
2023/03/23 09:10:38;;;;;;;6.63;5.00;;;;;;;10.34;96.88;100271.00;5115696;27;20493;-57
2023/03/23 09:13:06;;;;;;;6.95;5.25;;;;;;;10.48;98.34;100272.69;5115383;27;20023;-57
2023/03/23 09:15:32;;;;;;;6.75;5.05;;;;;;;10.59;97.67;100277.22;5116029;27;20114;-57
2023/03/23 09:17:58;;;;;;;8.18;4.72;;;;;;;10.59;96.74;100288.72;5133790;27;20588;-57
2023/03/23 09:20:26;;;;;;;8.60;4.72;;;;;;;10.68;98.29;100290.72;5133690;27;20088;-57
2023/03/23 09:22:53;;;;;;;5.30;4.30;;;;;;;10.57;96.64;100295.13;5134798;27;20038;-57
2023/03/23 09:25:21;;;;;;;5.43;4.55;;;;;;;10.55;95.18;100289.91;5114943;27;20023;-57
2023/03/23 09:27:56;;;;;;;7.03;4.88;;;;;;;10.52;96.53;100284.78;5114927;27;20047;-57
2023/03/23 09:30:24;;;;;;;6.07;4.63;;;;;;;10.54;98.40;100282.88;5114506;27;20025;-57
2023/03/23 09:32:49;;;;;;;7.15;5.13;;;;;;;10.59;96.80;100279.88;5134760;27;20439;-57
2023/03/23 09:35:16;;;;;;;7.90;4.90;;;;;;;10.60;97.23;100281.59;5133231;27;20031;-57
2023/03/23 09:37:44;;;;;;;6.32;5.10;;;;;;;10.66;96.63;100281.16;5115174;27;20474;-57
2023/03/23 09:40:19;;;;;;;6.60;5.68;;;;;;;10.68;96.36;100296.03;5133348;27;20023;-57
2023/03/23 09:42:46;;;;;;;6.90;4.97;;;;;;;10.78;95.88;100288.22;5133691;27;20079;-57
2023/03/23 09:45:19;;;;;;;7.00;4.68;;;;;;;11.01;94.86;100291.88;5144614;27;20035;-57
2023/03/23 09:47:45;;;;;;;7.90;5.03;;;;;;;11.18;93.64;100287.97;5094418;28;20539;-57
2023/03/23 09:50:21;;;;;;;5.28;4.78;;;;;;;11.43;92.87;100299.44;5112725;28;20027;-57
2023/03/23 09:52:58;;;;;;;6.90;4.50;;;;;;;11.68;92.42;100291.28;5112519;28;20114;-57
2023/03/23 09:55:24;;;;;;;7.78;4.88;;;;;;;11.79;90.37;100277.97;5111745;28;20542;-57
2023/03/23 09:58:09;;;;;;;6.53;3.85;;;;;;;12.17;90.23;100278.63;5114045;27;20035;-57
2023/03/23 10:00:43;;;;;;;7.57;3.45;;;;;;;12.36;88.51;100299.38;5132275;27;20041;-57
2023/03/23 10:03:26;;;;;;;7.50;3.55;;;;;;;12.55;88.16;100299.59;5133126;27;20034;-57
2023/03/23 10:05:55;;;;;;;5.53;3.28;;;;;;;12.60;86.75;100296.56;5132877;27;20088;-56
2023/03/23 10:08:24;;;;;;;4.85;3.20;;;;;;;12.77;86.60;100305.88;5133125;27;20114;-57
2023/03/23 10:11:03;;;;;;;3.75;3.38;;;;;;;12.92;85.41;100309.97;5153605;27;20102;-56
2023/03/23 10:13:37;;;;;;;7.10;3.70;;;;;;;13.16;83.23;100315.09;5134971;27;20042;-56
2023/03/23 10:16:08;;;;;;;4.47;3.40;;;;;;;13.23;81.07;100292.25;5152828;27;20034;-57
2023/03/23 10:19:06;;;;;;;5.50;3.15;;;;;;;13.45;82.61;100303.88;5150343;27;20035;-57
2023/03/23 10:21:35;;;;;;;4.50;2.88;;;;;;;13.56;79.80;100311.81;5120056;27;20126;-57
2023/03/23 10:24:09;;;;;;;6.25;3.80;;;;;;;13.73;81.46;100313.91;5151725;27;20098;-57
2023/03/23 10:27:00;;;;;;;6.30;3.60;;;;;;;14.07;81.29;100309.19;5132379;27;20079;-57
2023/03/23 10:29:29;;;;;;;7.50;3.47;;;;;;;14.29;78.32;100326.91;5113446;28;20023;-57
2023/03/23 10:32:11;;;;;;;5.75;3.20;;;;;;;14.03;77.43;100326.50;5134453;27;20358;-57
2023/03/23 10:35:03;;;;;;;4.28;3.20;;;;;;;14.19;77.64;100319.81;5153319;27;20077;-57
2023/03/23 10:37:36;;;;;;;6.80;3.78;;;;;;;14.09;78.27;100325.97;5142037;27;20496;-57
2023/03/23 10:40:09;;;;;;;7.47;3.33;;;;;;;14.15;78.53;100321.91;5134627;27;20047;-57
2023/03/23 10:42:38;;;;;;;4.82;3.03;;;;;;;14.04;75.66;100330.00;5130496;28;20026;-57
2023/03/23 10:45:13;;;;;;;9.73;3.80;;;;;;;13.97;76.83;100327.03;5113324;28;20102;-57
2023/03/23 10:47:43;;;;;;;7.32;3.40;;;;;;;13.80;78.86;100314.25;5132568;28;20035;-57
2023/03/23 10:50:15;;;;;;;7.38;3.28;;;;;;;13.73;77.57;100313.06;5132567;27;20019;-57
2023/03/23 10:52:44;;;;;;;6.55;3.75;;;;;;;13.55;79.00;100313.63;5115306;27;20100;-57
2023/03/23 10:55:15;;;;;;;6.47;3.60;;;;;;;13.78;77.96;100317.03;5111831;28;20028;-57
2023/03/23 10:57:46;;;;;;;6.95;3.88;;;;;;;14.05;78.71;100319.16;5111725;28;20049;-57
2023/03/23 11:00:21;;;;;;;8.07;3.65;;;;;;;14.15;74.89;100319.25;5111410;28;20027;-57
2023/03/23 11:02:57;;;;;;;7.47;3.67;;;;;;;14.14;75.16;100316.69;5111860;28;20020;-57
2023/03/23 11:05:37;;;;;;;8.00;3.40;;;;;;;14.14;73.36;100317.53;5131816;27;20019;-57
2023/03/23 11:08:09;;;;;;;6.60;3.70;;;;;;;14.23;74.62;100314.03;5155361;27;20438;-57
2023/03/23 11:10:51;;;;;;;9.32;3.70;;;;;;;14.36;72.99;100316.53;5157031;27;20022;-57
2023/03/23 11:13:21;;;;;;;7.47;3.45;;;;;;;14.38;72.97;100316.38;5156817;27;20465;-57
2023/03/23 11:15:49;;;;;;;8.73;3.63;;;;;;;14.53;72.30;100309.72;5154611;27;20033;-57
2023/03/23 11:18:37;;;;;;;7.00;3.38;;;;;;;14.84;70.54;100321.22;5149190;27;20512;-57
2023/03/23 11:21:05;;;;;;;7.55;3.58;;;;;;;14.87;67.25;100320.94;5136057;27;20032;-57
2023/03/23 11:23:36;;;;;;;8.05;3.25;;;;;;;14.97;68.52;100320.94;5136130;27;20015;-57
2023/03/23 11:26:33;;;;;;;6.60;2.80;;;;;;;14.97;67.52;100321.81;5135666;27;20088;-57
2023/03/23 11:29:20;;;;;;;6.80;2.92;;;;;;;14.96;70.07;100324.63;5127115;27;20046;-57
2023/03/23 11:31:52;;;;;;;8.48;3.40;;;;;;;14.97;69.50;100326.31;5156269;27;20014;-57
2023/03/23 11:34:26;;;;;;;7.00;3.35;;;;;;;14.75;69.17;100330.06;5156564;27;20048;-57
2023/03/23 11:37:01;;;;;;;6.20;3.20;;;;;;;14.31;69.41;100332.13;5156582;27;20079;-57